sensor_id;sensor_type;location;lat;lon;timestamp;pressure;altitude;pressure_sealevel;temperature;humidity
71145;BME280;58812;47.698;17.726;2024-02-15T00:01:29;100841.94;;;7.70;77.67
71145;BME280;58812;47.698;17.726;2024-02-15T00:03:54;100847.53;;;7.67;78.06
71145;BME280;58812;47.698;17.726;2024-02-15T00:06:20;100846.78;;;7.65;78.46
71145;BME280;58812;47.698;17.726;2024-02-15T00:08:45;100852.22;;;7.64;78.83
71145;BME280;58812;47.698;17.726;2024-02-15T00:11:11;100855.13;;;7.61;78.94
71145;BME280;58812;47.698;17.726;2024-02-15T00:13:37;100863.00;;;7.62;79.03
71145;BME280;58812;47.698;17.726;2024-02-15T00:16:03;100843.22;;;7.54;78.79
71145;BME280;58812;47.698;17.726;2024-02-15T00:18:29;100863.38;;;7.45;78.78
71145;BME280;58812;47.698;17.726;2024-02-15T00:20:54;100854.22;;;7.49;78.32
71145;BME280;58812;47.698;17.726;2024-02-15T00:23:19;100863.03;;;7.49;77.06
71145;BME280;58812;47.698;17.726;2024-02-15T00:25:45;100859.66;;;7.47;77.30
71145;BME280;58812;47.698;17.726;2024-02-15T00:28:13;100862.19;;;7.49;77.55
71145;BME280;58812;47.698;17.726;2024-02-15T00:30:39;100862.41;;;7.46;77.16
71145;BME280;58812;47.698;17.726;2024-02-15T00:33:04;100865.84;;;7.48;77.06
71145;BME280;58812;47.698;17.726;2024-02-15T00:35:30;100858.78;;;7.47;77.13
71145;BME280;58812;47.698;17.726;2024-02-15T00:37:55;100853.69;;;7.44;77.25
71145;BME280;58812;47.698;17.726;2024-02-15T00:40:22;100864.34;;;7.44;77.44
71145;BME280;58812;47.698;17.726;2024-02-15T00:42:47;100867.13;;;7.42;77.12
71145;BME280;58812;47.698;17.726;2024-02-15T00:45:13;100867.47;;;7.38;77.43
71145;BME280;58812;47.698;17.726;2024-02-15T00:47:38;100862.34;;;7.35;77.45
71145;BME280;58812;47.698;17.726;2024-02-15T00:50:10;100859.91;;;7.32;77.64
71145;BME280;58812;47.698;17.726;2024-02-15T00:52:35;100863.53;;;7.31;77.73
71145;BME280;58812;47.698;17.726;2024-02-15T00:55:01;100858.75;;;7.36;77.01
71145;BME280;58812;47.698;17.726;2024-02-15T00:57:26;100853.72;;;7.31;77.66
71145;BME280;58812;47.698;17.726;2024-02-15T00:59:51;100854.69;;;7.30;77.80
71145;BME280;58812;47.698;17.726;2024-02-15T01:02:17;100849.69;;;7.26;77.87
71145;BME280;58812;47.698;17.726;2024-02-15T01:04:43;100853.72;;;7.31;77.91
71145;BME280;58812;47.698;17.726;2024-02-15T01:07:10;100851.91;;;7.32;78.18
71145;BME280;58812;47.698;17.726;2024-02-15T01:09:36;100858.22;;;7.31;78.06
71145;BME280;58812;47.698;17.726;2024-02-15T01:12:01;100854.47;;;7.33;78.22
71145;BME280;58812;47.698;17.726;2024-02-15T01:14:29;100857.97;;;7.34;78.29
71145;BME280;58812;47.698;17.726;2024-02-15T01:16:56;100851.69;;;7.35;77.95
71145;BME280;58812;47.698;17.726;2024-02-15T01:19:21;100851.69;;;7.35;78.04
71145;BME280;58812;47.698;17.726;2024-02-15T01:21:47;100847.31;;;7.34;77.58
71145;BME280;58812;47.698;17.726;2024-02-15T01:24:12;100847.31;;;7.34;77.81
71145;BME280;58812;47.698;17.726;2024-02-15T01:26:37;100847.31;;;7.34;77.74
71145;BME280;58812;47.698;17.726;2024-02-15T01:29:03;100844.66;;;7.34;77.52
71145;BME280;58812;47.698;17.726;2024-02-15T01:31:28;100842.00;;;7.34;77.56
71145;BME280;58812;47.698;17.726;2024-02-15T01:33:54;100841.78;;;7.37;77.11
71145;BME280;58812;47.698;17.726;2024-02-15T01:36:19;100834.53;;;7.39;76.96
71145;BME280;58812;47.698;17.726;2024-02-15T01:38:45;100830.03;;;7.39;76.97
71145;BME280;58812;47.698;17.726;2024-02-15T01:41:11;100829.94;;;7.41;76.74
71145;BME280;58812;47.698;17.726;2024-02-15T01:43:37;100832.59;;;7.41;77.17
71145;BME280;58812;47.698;17.726;2024-02-15T01:46:07;100827.25;;;7.41;77.04
71145;BME280;58812;47.698;17.726;2024-02-15T01:48:33;100831.75;;;7.40;77.09
71145;BME280;58812;47.698;17.726;2024-02-15T01:50:59;100833.69;;;7.38;77.33
71145;BME280;58812;47.698;17.726;2024-02-15T01:53:25;100839.84;;;7.39;77.42
71145;BME280;58812;47.698;17.726;2024-02-15T01:55:52;100823.03;;;7.38;77.09
71145;BME280;58812;47.698;17.726;2024-02-15T01:58:19;100829.19;;;7.39;76.95
71145;BME280;58812;47.698;17.726;2024-02-15T02:00:45;100837.06;;;7.40;77.50
71145;BME280;58812;47.698;17.726;2024-02-15T02:03:13;100827.63;;;7.36;77.60
71145;BME280;58812;47.698;17.726;2024-02-15T02:05:40;100820.47;;;7.37;77.02
71145;BME280;58812;47.698;17.726;2024-02-15T02:08:06;100831.97;;;7.37;77.28
71145;BME280;58812;47.698;17.726;2024-02-15T02:10:37;100830.16;;;7.38;77.29
71145;BME280;58812;47.698;17.726;2024-02-15T02:13:03;100827.50;;;7.38;76.67
71145;BME280;58812;47.698;17.726;2024-02-15T02:15:28;100820.81;;;7.32;76.70
71145;BME280;58812;47.698;17.726;2024-02-15T02:17:57;100824.31;;;7.33;77.15
71145;BME280;58812;47.698;17.726;2024-02-15T02:20:25;100826.47;;;7.28;77.39
71145;BME280;58812;47.698;17.726;2024-02-15T02:22:53;100830.09;;;7.27;77.58
71145;BME280;58812;47.698;17.726;2024-02-15T02:25:20;100821.38;;;7.25;77.56
71145;BME280;58812;47.698;17.726;2024-02-15T02:27:46;100825.22;;;7.20;78.02
71145;BME280;58812;47.698;17.726;2024-02-15T02:30:14;100827.22;;;7.17;78.36
71145;BME280;58812;47.698;17.726;2024-02-15T02:32:41;100827.34;;;7.15;78.09
71145;BME280;58812;47.698;17.726;2024-02-15T02:35:06;100838.00;;;7.15;78.27
71145;BME280;58812;47.698;17.726;2024-02-15T02:37:32;100841.50;;;7.16;78.46
71145;BME280;58812;47.698;17.726;2024-02-15T02:40:00;100844.09;;;7.17;78.34
71145;BME280;58812;47.698;17.726;2024-02-15T02:42:26;100841.44;;;7.17;78.17
71145;BME280;58812;47.698;17.726;2024-02-15T02:44:51;100842.88;;;7.21;77.79
71145;BME280;58812;47.698;17.726;2024-02-15T02:47:16;100837.56;;;7.21;77.95
71145;BME280;58812;47.698;17.726;2024-02-15T02:49:42;100828.59;;;7.22;77.18
71145;BME280;58812;47.698;17.726;2024-02-15T02:52:07;100825.62;;;7.27;76.42
71145;BME280;58812;47.698;17.726;2024-02-15T02:54:33;100836.16;;;7.29;76.45
71145;BME280;58812;47.698;17.726;2024-02-15T02:57:00;100838.81;;;7.29;76.25
71145;BME280;58812;47.698;17.726;2024-02-15T02:59:25;100836.28;;;7.27;76.58
71145;BME280;58812;47.698;17.726;2024-02-15T03:01:50;100833.00;;;7.23;76.40
71145;BME280;58812;47.698;17.726;2024-02-15T03:04:16;100839.66;;;7.29;76.56
71145;BME280;58812;47.698;17.726;2024-02-15T03:06:42;100849.47;;;7.29;76.76
71145;BME280;58812;47.698;17.726;2024-02-15T03:09:08;100837.88;;;7.30;76.39
71145;BME280;58812;47.698;17.726;2024-02-15T03:11:35;100835.22;;;7.30;76.16
71145;BME280;58812;47.698;17.726;2024-02-15T03:14:01;100831.47;;;7.32;76.54
71145;BME280;58812;47.698;17.726;2024-02-15T03:16:30;100828.16;;;7.29;76.66
71145;BME280;58812;47.698;17.726;2024-02-15T03:18:55;100824.56;;;7.30;76.42
71145;BME280;58812;47.698;17.726;2024-02-15T03:21:21;100831.59;;;7.31;76.62
71145;BME280;58812;47.698;17.726;2024-02-15T03:23:46;100831.59;;;7.31;76.71
71145;BME280;58812;47.698;17.726;2024-02-15T03:26:11;100838.09;;;7.27;78.64
71145;BME280;58812;47.698;17.726;2024-02-15T03:28:37;100831.06;;;7.26;77.88
71145;BME280;58812;47.698;17.726;2024-02-15T03:31:03;100834.44;;;7.28;77.61
71145;BME280;58812;47.698;17.726;2024-02-15T03:33:28;100838.94;;;7.27;77.41
71145;BME280;58812;47.698;17.726;2024-02-15T03:35:59;100832.75;;;7.27;77.21
71145;BME280;58812;47.698;17.726;2024-02-15T03:38:28;100824.56;;;7.30;76.90
71145;BME280;58812;47.698;17.726;2024-02-15T03:40:57;100829.87;;;7.30;76.74
71145;BME280;58812;47.698;17.726;2024-02-15T03:43:23;100821.38;;;7.25;77.28
71145;BME280;58812;47.698;17.726;2024-02-15T03:45:50;100835.41;;;7.27;77.03
71145;BME280;58812;47.698;17.726;2024-02-15T03:48:16;100829.25;;;7.26;77.11
71145;BME280;58812;47.698;17.726;2024-02-15T03:50:42;100837.13;;;7.28;76.71
71145;BME280;58812;47.698;17.726;2024-02-15T03:53:09;100830.72;;;7.30;76.75
71145;BME280;58812;47.698;17.726;2024-02-15T03:55:36;100826.25;;;7.31;76.79
71145;BME280;58812;47.698;17.726;2024-02-15T03:58:01;100834.13;;;7.32;76.19
71145;BME280;58812;47.698;17.726;2024-02-15T04:00:27;100844.06;;;7.30;76.26
71145;BME280;58812;47.698;17.726;2024-02-15T04:02:53;100837.00;;;7.29;76.50
71145;BME280;58812;47.698;17.726;2024-02-15T04:05:18;100843.53;;;7.25;77.25
71145;BME280;58812;47.698;17.726;2024-02-15T04:07:46;100837.13;;;7.28;76.23
71145;BME280;58812;47.698;17.726;2024-02-15T04:10:13;100835.41;;;7.27;76.43
71145;BME280;58812;47.698;17.726;2024-02-15T04:12:38;100841.84;;;7.24;77.25
71145;BME280;58812;47.698;17.726;2024-02-15T04:15:07;100838.31;;;7.23;77.70
71145;BME280;58812;47.698;17.726;2024-02-15T04:17:37;100832.22;;;7.21;77.96
71145;BME280;58812;47.698;17.726;2024-02-15T04:20:04;100846.41;;;7.22;78.62
71145;BME280;58812;47.698;17.726;2024-02-15T04:22:32;100839.63;;;7.18;78.94
71145;BME280;58812;47.698;17.726;2024-02-15T04:25:06;100846.00;;;7.15;78.85
71145;BME280;58812;47.698;17.726;2024-02-15T04:27:35;100843.56;;;7.12;78.90
71145;BME280;58812;47.698;17.726;2024-02-15T04:30:01;100843.56;;;7.12;79.07
71145;BME280;58812;47.698;17.726;2024-02-15T04:32:27;100842.28;;;7.05;79.46
71145;BME280;58812;47.698;17.726;2024-02-15T04:34:54;100842.00;;;6.97;80.30
71145;BME280;58812;47.698;17.726;2024-02-15T04:37:19;100840.00;;;6.88;80.89
71145;BME280;58812;47.698;17.726;2024-02-15T04:39:46;100839.66;;;6.80;80.86
71145;BME280;58812;47.698;17.726;2024-02-15T04:42:12;100839.38;;;6.72;80.59
71145;BME280;58812;47.698;17.726;2024-02-15T04:44:38;100834.25;;;6.68;81.00
71145;BME280;58812;47.698;17.726;2024-02-15T04:47:04;100832.12;;;6.61;81.58
71145;BME280;58812;47.698;17.726;2024-02-15T04:49:30;100830.75;;;6.55;81.27
71145;BME280;58812;47.698;17.726;2024-02-15T04:51:55;100828.53;;;6.49;81.57
71145;BME280;58812;47.698;17.726;2024-02-15T04:54:22;100835.97;;;6.44;82.03
71145;BME280;58812;47.698;17.726;2024-02-15T04:56:48;100837.03;;;6.41;81.99
71145;BME280;58812;47.698;17.726;2024-02-15T04:59:15;100836.63;;;6.35;82.67
71145;BME280;58812;47.698;17.726;2024-02-15T05:01:41;100838.72;;;6.30;82.65
71145;BME280;58812;47.698;17.726;2024-02-15T05:04:11;100834.38;;;6.29;83.01
71145;BME280;58812;47.698;17.726;2024-02-15T05:06:37;100837.88;;;6.29;83.39
71145;BME280;58812;47.698;17.726;2024-02-15T05:09:03;100825.44;;;6.30;82.96
71145;BME280;58812;47.698;17.726;2024-02-15T05:11:39;100826.41;;;6.29;82.69
71145;BME280;58812;47.698;17.726;2024-02-15T05:14:07;100833.72;;;6.25;83.14
71145;BME280;58812;47.698;17.726;2024-02-15T05:16:35;100831.91;;;6.26;82.92
71145;BME280;58812;47.698;17.726;2024-02-15T05:19:07;100839.34;;;6.33;83.34
71145;BME280;58812;47.698;17.726;2024-02-15T05:21:33;100841.28;;;6.31;84.09
71145;BME280;58812;47.698;17.726;2024-02-15T05:23:59;100848.19;;;6.34;83.38
71145;BME280;58812;47.698;17.726;2024-02-15T05:26:24;100839.16;;;6.36;82.68
71145;BME280;58812;47.698;17.726;2024-02-15T05:28:50;100850.34;;;6.41;82.46
71145;BME280;58812;47.698;17.726;2024-02-15T05:31:17;100844.16;;;6.41;83.19
71145;BME280;58812;47.698;17.726;2024-02-15T05:33:43;100853.72;;;6.43;83.08
71145;BME280;58812;47.698;17.726;2024-02-15T05:36:13;100850.97;;;6.45;82.98
71145;BME280;58812;47.698;17.726;2024-02-15T05:38:39;100851.72;;;6.47;81.97
71145;BME280;58812;47.698;17.726;2024-02-15T05:41:05;100847.78;;;6.53;81.69
71145;BME280;58812;47.698;17.726;2024-02-15T05:43:32;100859.06;;;6.56;82.25
71145;BME280;58812;47.698;17.726;2024-02-15T05:45:58;100862.38;;;6.60;82.26
71145;BME280;58812;47.698;17.726;2024-02-15T05:48:26;100859.38;;;6.64;82.19
71145;BME280;58812;47.698;17.726;2024-02-15T05:50:51;100857.22;;;6.69;82.11
71145;BME280;58812;47.698;17.726;2024-02-15T05:53:19;100860.84;;;6.68;82.54
71145;BME280;58812;47.698;17.726;2024-02-15T05:55:44;100853.84;;;6.67;83.75
71145;BME280;58812;47.698;17.726;2024-02-15T05:58:10;100860.97;;;6.67;83.56
71145;BME280;58812;47.698;17.726;2024-02-15T06:00:37;100866.41;;;6.65;83.94
71145;BME280;58812;47.698;17.726;2024-02-15T06:03:04;100871.72;;;6.65;84.41
71145;BME280;58812;47.698;17.726;2024-02-15T06:05:31;100875.97;;;6.68;85.02
71145;BME280;58812;47.698;17.726;2024-02-15T06:07:57;100867.44;;;6.76;84.69
71145;BME280;58812;47.698;17.726;2024-02-15T06:10:24;100872.47;;;6.67;84.86
71145;BME280;58812;47.698;17.726;2024-02-15T06:12:50;100869.38;;;6.61;85.79
71145;BME280;58812;47.698;17.726;2024-02-15T06:15:16;100879.38;;;6.57;86.05
71145;BME280;58812;47.698;17.726;2024-02-15T06:17:42;100872.34;;;6.56;86.25
71145;BME280;58812;47.698;17.726;2024-02-15T06:20:14;100881.53;;;6.65;87.01
71145;BME280;58812;47.698;17.726;2024-02-15T06:22:40;100888.22;;;6.71;87.01
71145;BME280;58812;47.698;17.726;2024-02-15T06:25:06;100893.31;;;6.74;87.21
71145;BME280;58812;47.698;17.726;2024-02-15T06:27:32;100883.00;;;6.69;87.05
71145;BME280;58812;47.698;17.726;2024-02-15T06:29:58;100887.47;;;6.68;87.89
71145;BME280;58812;47.698;17.726;2024-02-15T06:32:42;100889.94;;;6.72;88.23
71145;BME280;58812;47.698;17.726;2024-02-15T06:35:27;100892.47;;;6.73;89.07
71145;BME280;58812;47.698;17.726;2024-02-15T06:38:10;100899.19;;;6.79;89.31
71145;BME280;58812;47.698;17.726;2024-02-15T06:40:54;100903.88;;;6.88;89.41
71145;BME280;58812;47.698;17.726;2024-02-15T06:43:20;100901.94;;;6.90;89.42
71145;BME280;58812;47.698;17.726;2024-02-15T06:45:46;100906.94;;;6.94;89.25
71145;BME280;58812;47.698;17.726;2024-02-15T06:48:12;100906.41;;;7.02;90.12
71145;BME280;58812;47.698;17.726;2024-02-15T06:50:38;100903.75;;;7.02;89.57
71145;BME280;58812;47.698;17.726;2024-02-15T06:53:04;100906.94;;;7.07;89.54
71145;BME280;58812;47.698;17.726;2024-02-15T06:55:30;100904.03;;;7.10;90.00
71145;BME280;58812;47.698;17.726;2024-02-15T06:57:56;100916.19;;;7.14;89.52
71145;BME280;58812;47.698;17.726;2024-02-15T07:00:21;100918.09;;;7.25;89.66
71145;BME280;58812;47.698;17.726;2024-02-15T07:02:47;100922.66;;;7.36;89.38
71145;BME280;58812;47.698;17.726;2024-02-15T07:05:14;100917.63;;;7.44;89.16
71145;BME280;58812;47.698;17.726;2024-02-15T07:07:39;100918.87;;;7.51;88.96
71145;BME280;58812;47.698;17.726;2024-02-15T07:10:10;100902.25;;;7.60;88.86
71145;BME280;58812;47.698;17.726;2024-02-15T07:12:36;100907.91;;;7.80;88.09
71145;BME280;58812;47.698;17.726;2024-02-15T07:15:04;100914.53;;;7.98;87.24
71145;BME280;58812;47.698;17.726;2024-02-15T07:17:32;100907.72;;;8.18;86.28
71145;BME280;58812;47.698;17.726;2024-02-15T07:19:57;100907.41;;;8.34;85.52
71145;BME280;58812;47.698;17.726;2024-02-15T07:22:22;100909.66;;;8.40;84.31
71145;BME280;58812;47.698;17.726;2024-02-15T07:24:48;100909.31;;;8.44;83.12
71145;BME280;58812;47.698;17.726;2024-02-15T07:27:13;100911.84;;;8.46;82.94
71145;BME280;58812;47.698;17.726;2024-02-15T07:29:39;100917.84;;;8.61;82.78
71145;BME280;58812;47.698;17.726;2024-02-15T07:32:04;100912.63;;;8.70;81.45
71145;BME280;58812;47.698;17.726;2024-02-15T07:34:33;100910.56;;;8.74;81.78
71145;BME280;58812;47.698;17.726;2024-02-15T07:36:59;100914.09;;;8.74;80.91
71145;BME280;58812;47.698;17.726;2024-02-15T07:39:25;100917.38;;;8.89;81.03
71145;BME280;58812;47.698;17.726;2024-02-15T07:41:55;100912.41;;;8.85;80.13
71145;BME280;58812;47.698;17.726;2024-02-15T07:44:23;100908.41;;;8.79;79.65
71145;BME280;58812;47.698;17.726;2024-02-15T07:46:50;100921.75;;;8.79;80.17
71145;BME280;58812;47.698;17.726;2024-02-15T07:49:15;100919.09;;;8.79;79.78
71145;BME280;58812;47.698;17.726;2024-02-15T07:51:43;100921.13;;;8.75;78.86
71145;BME280;58812;47.698;17.726;2024-02-15T07:54:09;100926.25;;;8.78;78.56
71145;BME280;58812;47.698;17.726;2024-02-15T07:56:36;100922.25;;;8.84;78.07
71145;BME280;58812;47.698;17.726;2024-02-15T07:59:01;100919.59;;;8.84;78.45
71145;BME280;58812;47.698;17.726;2024-02-15T08:01:27;100917.97;;;8.81;78.41
71145;BME280;58812;47.698;17.726;2024-02-15T08:03:55;100916.50;;;8.77;77.90
71145;BME280;58812;47.698;17.726;2024-02-15T08:06:22;100917.25;;;8.79;78.16
71145;BME280;58812;47.698;17.726;2024-02-15T08:08:50;100914.72;;;8.89;77.78
71145;BME280;58812;47.698;17.726;2024-02-15T08:11:17;100914.84;;;8.99;77.15
71145;BME280;58812;47.698;17.726;2024-02-15T08:13:46;100916.06;;;9.06;76.15
71145;BME280;58812;47.698;17.726;2024-02-15T08:16:15;100913.16;;;9.20;74.82
71145;BME280;58812;47.698;17.726;2024-02-15T08:18:42;100915.00;;;9.20;74.39
71145;BME280;58812;47.698;17.726;2024-02-15T08:21:09;100909.38;;;9.23;74.78
71145;BME280;58812;47.698;17.726;2024-02-15T08:23:36;100910.00;;;9.26;74.38
71145;BME280;58812;47.698;17.726;2024-02-15T08:26:01;100906.09;;;9.30;73.78
71145;BME280;58812;47.698;17.726;2024-02-15T08:28:27;100916.19;;;9.38;73.04
71145;BME280;58812;47.698;17.726;2024-02-15T08:30:54;100922.88;;;9.32;73.35
71145;BME280;58812;47.698;17.726;2024-02-15T08:33:21;100911.34;;;9.32;72.93
71145;BME280;58812;47.698;17.726;2024-02-15T08:35:46;100916.28;;;9.36;72.23
71145;BME280;58812;47.698;17.726;2024-02-15T08:38:12;100916.78;;;9.42;72.39
71145;BME280;58812;47.698;17.726;2024-02-15T08:40:37;100929.41;;;9.40;72.52
71145;BME280;58812;47.698;17.726;2024-02-15T08:43:02;100917.28;;;9.35;72.72
71145;BME280;58812;47.698;17.726;2024-02-15T08:45:28;100918.72;;;9.40;71.98
71145;BME280;58812;47.698;17.726;2024-02-15T08:47:53;100915.69;;;9.44;72.00
71145;BME280;58812;47.698;17.726;2024-02-15T08:50:19;100921.03;;;9.55;72.04
71145;BME280;58812;47.698;17.726;2024-02-15T08:52:46;100921.97;;;9.54;71.50
71145;BME280;58812;47.698;17.726;2024-02-15T08:55:12;100917.12;;;9.59;71.26
71145;BME280;58812;47.698;17.726;2024-02-15T08:57:40;100914.28;;;9.72;71.34
71145;BME280;58812;47.698;17.726;2024-02-15T09:00:07;100911.84;;;9.80;71.52
71145;BME280;58812;47.698;17.726;2024-02-15T09:02:43;100916.22;;;9.81;71.34
71145;BME280;58812;47.698;17.726;2024-02-15T09:05:08;100907.84;;;9.86;71.04
71145;BME280;58812;47.698;17.726;2024-02-15T09:07:35;100907.69;;;9.87;71.16
71145;BME280;58812;47.698;17.726;2024-02-15T09:10:02;100909.72;;;9.95;70.87
71145;BME280;58812;47.698;17.726;2024-02-15T09:12:28;100909.56;;;10.08;70.21
71145;BME280;58812;47.698;17.726;2024-02-15T09:14:53;100914.16;;;10.17;69.95
71145;BME280;58812;47.698;17.726;2024-02-15T09:17:19;100911.09;;;10.33;69.48
71145;BME280;58812;47.698;17.726;2024-02-15T09:19:47;100906.38;;;10.46;68.99
71145;BME280;58812;47.698;17.726;2024-02-15T09:22:15;100914.94;;;10.61;68.17
71145;BME280;58812;47.698;17.726;2024-02-15T09:24:40;100914.41;;;10.88;67.37
71145;BME280;58812;47.698;17.726;2024-02-15T09:27:07;100915.25;;;11.19;66.74
71145;BME280;58812;47.698;17.726;2024-02-15T09:29:33;100926.03;;;11.69;62.93
71145;BME280;58812;47.698;17.726;2024-02-15T09:31:59;100929.34;;;11.92;63.11
71145;BME280;58812;47.698;17.726;2024-02-15T09:34:27;100928.34;;;11.93;62.21
71145;BME280;58812;47.698;17.726;2024-02-15T09:36:52;100922.31;;;12.10;60.54
71145;BME280;58812;47.698;17.726;2024-02-15T09:39:18;100924.87;;;12.97;59.75
71145;BME280;58812;47.698;17.726;2024-02-15T09:41:43;100937.44;;;12.40;59.87
71145;BME280;58812;47.698;17.726;2024-02-15T09:44:09;100925.37;;;12.64;60.30
71145;BME280;58812;47.698;17.726;2024-02-15T09:46:36;100928.53;;;13.06;57.93
71145;BME280;58812;47.698;17.726;2024-02-15T09:49:06;100923.84;;;12.13;57.43
71145;BME280;58812;47.698;17.726;2024-02-15T09:51:33;100929.50;;;12.29;57.86
71145;BME280;58812;47.698;17.726;2024-02-15T09:54:00;100922.44;;;12.18;59.23
71145;BME280;58812;47.698;17.726;2024-02-15T09:56:26;100918.19;;;12.54;58.23
71145;BME280;58812;47.698;17.726;2024-02-15T09:58:54;100923.25;;;12.77;57.36
71145;BME280;58812;47.698;17.726;2024-02-15T10:01:23;100922.50;;;12.94;56.65
71145;BME280;58812;47.698;17.726;2024-02-15T10:03:50;100921.50;;;12.95;57.76
71145;BME280;58812;47.698;17.726;2024-02-15T10:06:17;100924.38;;;12.65;58.29
71145;BME280;58812;47.698;17.726;2024-02-15T10:08:43;100919.63;;;12.39;58.57
71145;BME280;58812;47.698;17.726;2024-02-15T10:11:10;100910.28;;;12.53;58.91
71145;BME280;58812;47.698;17.726;2024-02-15T10:13:36;100915.78;;;12.51;59.29
71145;BME280;58812;47.698;17.726;2024-02-15T10:16:17;100914.38;;;12.47;59.82
71145;BME280;58812;47.698;17.726;2024-02-15T10:18:44;100918.75;;;12.48;60.62
71145;BME280;58812;47.698;17.726;2024-02-15T10:21:09;100918.28;;;12.63;58.82
71145;BME280;58812;47.698;17.726;2024-02-15T10:23:36;100913.66;;;12.55;60.42
71145;BME280;58812;47.698;17.726;2024-02-15T10:26:18;100918.19;;;12.25;61.00
71145;BME280;58812;47.698;17.726;2024-02-15T10:28:44;100920.03;;;12.25;61.17
71145;BME280;58812;47.698;17.726;2024-02-15T10:31:09;100906.88;;;12.02;61.79
71145;BME280;58812;47.698;17.726;2024-02-15T10:33:38;100918.22;;;12.16;61.55
71145;BME280;58812;47.698;17.726;2024-02-15T10:36:05;100917.22;;;12.36;60.69
71145;BME280;58812;47.698;17.726;2024-02-15T10:38:32;100917.59;;;12.61;60.80
71145;BME280;58812;47.698;17.726;2024-02-15T10:41:03;100923.25;;;12.77;60.18
71145;BME280;58812;47.698;17.726;2024-02-15T10:43:30;100914.38;;;12.38;61.67
71145;BME280;58812;47.698;17.726;2024-02-15T10:45:56;100907.19;;;12.19;61.69
71145;BME280;58812;47.698;17.726;2024-02-15T10:48:22;100905.88;;;12.33;61.67
71145;BME280;58812;47.698;17.726;2024-02-15T10:50:47;100903.66;;;12.28;61.57
71145;BME280;58812;47.698;17.726;2024-02-15T10:55:53;100900.38;;;12.63;60.92
71145;BME280;58812;47.698;17.726;2024-02-15T10:58:19;100898.31;;;12.84;59.17
71145;BME280;58812;47.698;17.726;2024-02-15T11:00:47;100896.62;;;12.93;58.89
71145;BME280;58812;47.698;17.726;2024-02-15T11:03:19;100894.03;;;13.01;59.24
71145;BME280;58812;47.698;17.726;2024-02-15T11:05:46;100901.16;;;12.83;59.49
71145;BME280;58812;47.698;17.726;2024-02-15T11:08:12;100893.00;;;12.65;60.65
71145;BME280;58812;47.698;17.726;2024-02-15T11:10:38;100883.38;;;12.63;60.62
71145;BME280;58812;47.698;17.726;2024-02-15T11:13:08;100868.31;;;12.99;59.85
71145;BME280;58812;47.698;17.726;2024-02-15T11:18:07;100870.87;;;13.55;57.58
71145;BME280;58812;47.698;17.726;2024-02-15T11:22:59;100873.09;;;14.05;57.56
71145;BME280;58812;47.698;17.726;2024-02-15T11:25:35;100874.22;;;14.21;56.37
71145;BME280;58812;47.698;17.726;2024-02-15T11:30:46;100861.41;;;15.18;53.72
71145;BME280;58812;47.698;17.726;2024-02-15T11:33:31;100862.12;;;15.29;53.95
71145;BME280;58812;47.698;17.726;2024-02-15T11:36:09;100865.25;;;15.50;54.59
71145;BME280;58812;47.698;17.726;2024-02-15T11:38:37;100867.63;;;15.61;52.69
71145;BME280;58812;47.698;17.726;2024-02-15T11:41:06;100850.00;;;14.99;55.31
71145;BME280;58812;47.698;17.726;2024-02-15T11:46:15;100852.50;;;14.92;55.91
71145;BME280;58812;47.698;17.726;2024-02-15T11:48:45;100850.00;;;15.41;55.07
71145;BME280;58812;47.698;17.726;2024-02-15T11:51:33;100838.91;;;15.44;54.79
71145;BME280;58812;47.698;17.726;2024-02-15T11:54:04;100843.13;;;15.46;54.72
71145;BME280;58812;47.698;17.726;2024-02-15T11:56:48;100851.72;;;15.42;54.44
71145;BME280;58812;47.698;17.726;2024-02-15T11:59:16;100845.91;;;14.86;56.73
71145;BME280;58812;47.698;17.726;2024-02-15T12:01:56;100840.16;;;14.55;57.60
71145;BME280;58812;47.698;17.726;2024-02-15T12:04:40;100839.53;;;14.61;57.22
71145;BME280;58812;47.698;17.726;2024-02-15T12:07:24;100840.84;;;14.57;57.57
71145;BME280;58812;47.698;17.726;2024-02-15T12:10:18;100838.28;;;14.48;58.44
71145;BME280;58812;47.698;17.726;2024-02-15T12:13:03;100834.78;;;14.11;58.88
71145;BME280;58812;47.698;17.726;2024-02-15T12:15:58;100831.03;;;14.30;59.32
71145;BME280;58812;47.698;17.726;2024-02-15T12:18:44;100826.16;;;14.34;59.28
71145;BME280;58812;47.698;17.726;2024-02-15T12:21:16;100821.66;;;14.16;59.91
71145;BME280;58812;47.698;17.726;2024-02-15T12:23:42;100830.81;;;14.24;60.10
71145;BME280;58812;47.698;17.726;2024-02-15T12:26:08;100825.06;;;14.19;60.88
71145;BME280;58812;47.698;17.726;2024-02-15T12:28:34;100825.09;;;14.27;61.92
71145;BME280;58812;47.698;17.726;2024-02-15T12:31:01;100820.31;;;13.77;62.99
71145;BME280;58812;47.698;17.726;2024-02-15T12:33:27;100826.53;;;13.77;63.03
71145;BME280;58812;47.698;17.726;2024-02-15T12:36:03;100819.38;;;14.04;63.15
71145;BME280;58812;47.698;17.726;2024-02-15T12:38:30;100819.81;;;13.99;62.36
71145;BME280;58812;47.698;17.726;2024-02-15T12:40:56;100819.75;;;14.09;62.31
71145;BME280;58812;47.698;17.726;2024-02-15T12:43:22;100820.59;;;14.09;61.73
71145;BME280;58812;47.698;17.726;2024-02-15T12:45:47;100819.25;;;14.05;62.36
71145;BME280;58812;47.698;17.726;2024-02-15T12:48:13;100818.69;;;13.66;64.27
71145;BME280;58812;47.698;17.726;2024-02-15T12:50:40;100819.38;;;13.50;64.75
71145;BME280;58812;47.698;17.726;2024-02-15T12:53:06;100810.63;;;13.66;64.04
71145;BME280;58812;47.698;17.726;2024-02-15T12:55:37;100815.78;;;13.77;63.49
71145;BME280;58812;47.698;17.726;2024-02-15T12:58:04;100814.94;;;13.77;62.96
71145;BME280;58812;47.698;17.726;2024-02-15T13:00:34;100811.25;;;13.78;64.00
71145;BME280;58812;47.698;17.726;2024-02-15T13:03:03;100810.06;;;13.62;63.86